createdAt,value
2018-06-13T00:00:05.145Z,5.40
2018-06-13T00:02:32.099Z,5.40
2018-06-13T00:04:58.946Z,5.50
2018-06-13T00:07:25.897Z,5.40
2018-06-13T00:09:52.854Z,5.50
2018-06-13T00:12:19.698Z,5.50
2018-06-13T00:14:46.545Z,5.50
2018-06-13T00:17:13.496Z,5.50
2018-06-13T00:19:40.452Z,5.50
2018-06-13T00:22:07.602Z,5.50
2018-06-13T00:24:34.450Z,5.60
2018-06-13T00:27:02.024Z,5.50
2018-06-13T00:29:28.969Z,5.50
2018-06-13T00:31:55.815Z,5.40
2018-06-13T00:34:22.871Z,5.50
2018-06-13T00:36:49.772Z,5.40
2018-06-13T00:39:17.387Z,5.30
2018-06-13T00:41:44.337Z,5.20
2018-06-13T00:44:11.187Z,5.30
2018-06-13T00:46:38.134Z,5.30
2018-06-13T00:49:05.088Z,5.20
2018-06-13T00:51:35.447Z,5.20
2018-06-13T00:54:02.267Z,5.10
2018-06-13T00:56:29.114Z,5.10
2018-06-13T00:58:56.064Z,5.20
2018-06-13T01:01:22.913Z,5.20
2018-06-13T01:03:49.711Z,5.30
2018-06-13T01:06:17.326Z,5.50
2018-06-13T01:08:44.124Z,5.40
2018-06-13T01:11:10.924Z,5.60
2018-06-13T01:13:37.872Z,5.60
2018-06-13T01:16:04.723Z,5.60
2018-06-13T01:18:31.669Z,5.70
2018-06-13T01:20:58.523Z,5.70
2018-06-13T01:23:25.674Z,5.70
2018-06-13T01:25:52.730Z,5.80
2018-06-13T01:28:20.291Z,6.00
2018-06-13T01:30:47.246Z,5.90
2018-06-13T01:33:14.197Z,6.00
2018-06-13T01:35:40.954Z,6.00
2018-06-13T01:38:07.789Z,6.00
2018-06-13T01:40:34.535Z,6.00
2018-06-13T01:43:01.490Z,5.90
2018-06-13T01:45:28.233Z,5.90
2018-06-13T01:47:55.189Z,6.00
2018-06-13T01:50:22.032Z,6.00
2018-06-13T01:52:48.983Z,6.10
2018-06-13T01:55:15.934Z,6.10
2018-06-13T01:57:42.885Z,6.10
2018-06-13T02:00:09.959Z,6.10
2018-06-13T02:02:38.220Z,6.00
2018-06-13T02:05:06.779Z,6.00
2018-06-13T02:07:35.294Z,6.00
2018-06-13T02:10:02.245Z,5.90
2018-06-13T02:12:28.995Z,5.90
2018-06-13T02:14:55.842Z,6.00
2018-06-13T02:17:22.688Z,6.10
2018-06-13T02:19:49.643Z,6.20
2018-06-13T02:22:16.495Z,6.20
2018-06-13T02:24:43.440Z,6.30
2018-06-13T02:27:10.392Z,6.10
2018-06-13T02:29:38.774Z,6.10
2018-06-13T02:32:05.629Z,6.00
2018-06-13T02:34:32.573Z,6.00
2018-06-13T02:36:59.424Z,6.00
2018-06-13T02:39:26.271Z,6.10
2018-06-13T02:41:53.940Z,6.40
2018-06-13T02:44:20.890Z,6.40
2018-06-13T02:46:47.839Z,6.50
2018-06-13T02:49:14.586Z,6.70
2018-06-13T02:51:41.536Z,6.90
2018-06-13T02:54:08.385Z,6.90
2018-06-13T02:56:35.337Z,6.90
2018-06-13T02:59:02.289Z,7.00
2018-06-13T03:01:29.138Z,7.20
2018-06-13T03:03:55.887Z,7.40
2018-06-13T03:06:22.833Z,7.60
2018-06-13T03:08:49.682Z,7.70
2018-06-13T03:11:16.635Z,7.80
2018-06-13T03:13:43.585Z,7.80
2018-06-13T03:16:10.437Z,7.60
2018-06-13T03:18:37.284Z,7.60
2018-06-13T03:21:04.233Z,7.50
2018-06-13T03:23:31.034Z,7.40
2018-06-13T03:25:57.931Z,7.40
2018-06-13T03:28:24.777Z,7.40
2018-06-13T03:30:51.833Z,7.40
2018-06-13T03:33:18.680Z,7.50
2018-06-13T03:35:45.632Z,7.60
2018-06-13T03:38:13.304Z,7.70
2018-06-13T03:40:40.456Z,7.80
2018-06-13T03:43:07.407Z,8.10
2018-06-13T03:45:34.358Z,8.20
2018-06-13T03:48:01.205Z,8.30
2018-06-13T03:50:29.105Z,8.70
2018-06-13T03:52:57.327Z,9.10
2018-06-13T03:55:24.820Z,9.40
2018-06-13T03:57:51.672Z,9.80
2018-06-13T04:00:18.619Z,10.00
2018-06-13T04:02:45.573Z,9.90
2018-06-13T04:05:12.419Z,9.80
2018-06-13T04:07:39.892Z,9.90
2018-06-13T04:10:08.788Z,10.30
2018-06-13T04:12:37.775Z,10.50
2018-06-13T04:15:04.831Z,10.50
2018-06-13T04:17:32.297Z,10.80
2018-06-13T04:19:59.347Z,11.00
2018-06-13T04:22:26.344Z,11.10
2018-06-13T04:24:53.145Z,11.30
2018-06-13T04:27:20.097Z,11.80
2018-06-13T04:29:47.060Z,12.70
2018-06-13T04:32:14.716Z,17.50
2018-06-13T04:34:41.667Z,17.40
2018-06-13T04:37:09.335Z,22.10
2018-06-13T04:39:36.181Z,22.00
2018-06-13T04:42:03.190Z,24.30
2018-06-13T04:44:29.979Z,25.90
2018-06-13T04:46:56.829Z,25.30
2018-06-13T04:49:23.778Z,28.00
2018-06-13T04:51:50.628Z,28.40
2018-06-13T04:54:17.581Z,27.70
2018-06-13T04:56:44.531Z,28.10
2018-06-13T04:59:11.481Z,28.00
2018-06-13T05:01:38.337Z,29.10
2018-06-13T05:04:05.282Z,30.50
2018-06-13T05:06:32.233Z,31.50
2018-06-13T05:08:59.185Z,29.00
2018-06-13T05:11:26.133Z,28.20
2018-06-13T05:13:53.086Z,28.10
2018-06-13T05:16:20.035Z,27.00
2018-06-13T05:18:46.985Z,25.70
2018-06-13T05:21:13.936Z,24.70
2018-06-13T05:23:40.889Z,26.90
2018-06-13T05:26:07.844Z,28.20
2018-06-13T05:28:34.830Z,30.00
2018-06-13T05:31:01.741Z,30.70
2018-06-13T05:33:29.514Z,26.90
2018-06-13T05:35:56.461Z,26.70
2018-06-13T05:38:23.312Z,24.80
2018-06-13T05:40:50.262Z,23.60
2018-06-13T05:43:17.212Z,24.60
2018-06-13T05:45:44.060Z,26.20
2018-06-13T05:48:10.910Z,25.70
2018-06-13T05:50:37.859Z,27.50
2018-06-13T05:53:04.812Z,28.20
2018-06-13T05:55:31.557Z,30.00
2018-06-13T05:57:58.407Z,31.90
2018-06-13T06:00:25.253Z,33.50
2018-06-13T06:02:52.206Z,34.70
2018-06-13T06:05:19.053Z,33.20
2018-06-13T06:07:45.904Z,32.60
2018-06-13T06:10:12.773Z,32.10
2018-06-13T06:12:39.805Z,33.60
2018-06-13T06:15:06.652Z,34.10
2018-06-13T06:17:33.606Z,32.40
2018-06-13T06:20:00.558Z,30.80
2018-06-13T06:22:27.403Z,30.10
2018-06-13T06:24:54.357Z,27.50
2018-06-13T06:27:21.309Z,27.00
2018-06-13T06:29:48.257Z,29.00
2018-06-13T06:32:15.105Z,28.10
2018-06-13T06:34:42.882Z,29.30
2018-06-13T06:37:09.656Z,29.30
2018-06-13T06:39:36.676Z,32.50
2018-06-13T06:42:03.669Z,32.60
2018-06-13T06:44:31.398Z,33.40
2018-06-13T06:46:58.243Z,33.30
2018-06-13T06:49:25.093Z,33.00
2018-06-13T06:51:51.949Z,33.50
2018-06-13T06:54:18.896Z,32.50
2018-06-13T06:56:45.748Z,33.30
2018-06-13T06:59:12.693Z,33.90
2018-06-13T07:01:39.643Z,33.60
2018-06-13T07:04:06.491Z,30.20
2018-06-13T07:06:33.342Z,29.00
2018-06-13T07:09:00.294Z,29.00
2018-06-13T07:11:27.138Z,30.40
2018-06-13T07:13:53.988Z,30.70
2018-06-13T07:16:20.842Z,33.80
2018-06-13T07:18:47.795Z,35.80
2018-06-13T07:21:14.741Z,37.60
2018-06-13T07:23:41.690Z,36.20
2018-06-13T07:26:08.546Z,35.50
2018-06-13T07:28:35.493Z,35.70
2018-06-13T07:31:02.443Z,33.60
2018-06-13T07:33:29.287Z,33.90
2018-06-13T07:35:56.957Z,30.50
2018-06-13T07:38:23.804Z,30.40
2018-06-13T07:40:50.757Z,30.20
2018-06-13T07:43:17.604Z,30.20
2018-06-13T07:45:44.555Z,28.80
2018-06-13T07:48:11.508Z,29.00
2018-06-13T07:50:38.469Z,29.80
2018-06-13T07:53:05.308Z,31.20
2018-06-13T07:55:32.259Z,31.90
2018-06-13T07:57:59.106Z,32.60
2018-06-13T08:00:26.057Z,30.90
2018-06-13T08:02:53.010Z,30.70
2018-06-13T08:05:19.958Z,29.40
2018-06-13T08:07:46.807Z,27.60
2018-06-13T08:10:13.760Z,26.40
2018-06-13T08:12:40.708Z,25.20
2018-06-13T08:15:07.557Z,25.00
2018-06-13T08:17:34.407Z,24.50
2018-06-13T08:20:01.359Z,24.10
2018-06-13T08:22:28.114Z,23.60
2018-06-13T08:24:55.056Z,23.30
2018-06-13T08:27:22.005Z,23.10
2018-06-13T08:29:48.958Z,22.80
2018-06-13T08:32:15.908Z,22.30
2018-06-13T08:34:42.757Z,22.10
2018-06-13T08:37:09.811Z,22.10
2018-06-13T08:39:36.762Z,22.10
2018-06-13T08:42:03.608Z,21.70
2018-06-13T08:44:30.558Z,22.10
2018-06-13T08:46:57.509Z,23.50
2018-06-13T08:49:24.357Z,24.20
2018-06-13T08:51:51.308Z,23.50
2018-06-13T08:54:18.160Z,23.20
2018-06-13T08:56:45.419Z,24.00
2018-06-13T08:59:12.369Z,24.40
2018-06-13T09:01:39.318Z,24.60
2018-06-13T09:04:06.166Z,25.60
2018-06-13T09:06:33.121Z,24.60
2018-06-13T09:09:00.135Z,23.70
2018-06-13T09:11:27.737Z,23.70
2018-06-13T09:13:54.584Z,23.60
2018-06-13T09:16:21.437Z,23.60
2018-06-13T09:18:48.386Z,23.50
2018-06-13T09:21:15.338Z,23.10
2018-06-13T09:23:42.189Z,22.30
2018-06-13T09:26:09.135Z,22.10
2018-06-13T09:28:35.983Z,22.40
2018-06-13T09:31:02.940Z,22.70
2018-06-13T09:33:29.887Z,22.80
2018-06-13T09:35:56.838Z,22.60
2018-06-13T09:38:23.789Z,22.50
2018-06-13T09:40:50.628Z,23.20
2018-06-13T09:43:17.589Z,23.60
2018-06-13T09:45:44.642Z,22.60
2018-06-13T09:48:11.493Z,22.80
2018-06-13T09:50:38.442Z,22.90
2018-06-13T09:53:05.393Z,23.10
2018-06-13T09:55:32.343Z,23.20
2018-06-13T09:57:59.295Z,23.80
2018-06-13T10:00:26.244Z,23.90
2018-06-13T10:02:53.197Z,24.60
2018-06-13T10:05:20.148Z,23.90
2018-06-13T10:07:46.950Z,23.40
2018-06-13T10:10:14.664Z,23.20
2018-06-13T10:12:41.613Z,23.20
2018-06-13T10:15:08.463Z,22.70
2018-06-13T10:17:35.413Z,23.40
2018-06-13T10:20:02.364Z,23.20
2018-06-13T10:22:29.217Z,23.40
2018-06-13T10:24:56.163Z,23.20
2018-06-13T10:27:23.115Z,22.70
2018-06-13T10:29:49.961Z,23.10
2018-06-13T10:32:16.917Z,23.20
2018-06-13T10:34:43.873Z,23.60
2018-06-13T10:37:10.817Z,24.00
2018-06-13T10:39:38.483Z,21.80
2018-06-13T10:42:05.432Z,21.70
2018-06-13T10:44:32.280Z,21.30
2018-06-13T10:46:59.232Z,21.30
2018-06-13T10:49:26.183Z,21.50
2018-06-13T10:51:53.237Z,21.70
2018-06-13T10:54:20.396Z,21.50
2018-06-13T10:56:47.346Z,22.50
2018-06-13T10:59:14.297Z,22.40
2018-06-13T11:01:41.142Z,22.40
2018-06-13T11:04:07.990Z,21.70
2018-06-13T11:06:34.839Z,21.90
2018-06-13T11:09:01.688Z,21.70
2018-06-13T11:11:28.640Z,21.40
2018-06-13T11:13:55.593Z,21.20
2018-06-13T11:16:22.645Z,21.20
2018-06-13T11:18:49.494Z,21.00
2018-06-13T11:21:16.445Z,20.60
2018-06-13T11:23:43.393Z,20.50
2018-06-13T11:26:10.400Z,20.70
2018-06-13T11:28:38.216Z,21.00
2018-06-13T11:31:05.172Z,20.90
2018-06-13T11:33:32.118Z,21.40
2018-06-13T11:35:59.071Z,21.50
2018-06-13T11:38:26.025Z,21.20
2018-06-13T11:40:53.180Z,20.90
2018-06-13T11:43:20.134Z,20.90
2018-06-13T11:45:46.875Z,20.90
2018-06-13T11:48:13.736Z,21.00
2018-06-13T11:50:40.573Z,20.50
2018-06-13T11:53:07.428Z,20.70
2018-06-13T11:55:34.272Z,20.50
2018-06-13T11:58:01.124Z,20.30
2018-06-13T12:00:28.010Z,20.50
2018-06-13T12:02:54.817Z,20.10
2018-06-13T12:05:21.663Z,20.20
2018-06-13T12:07:48.617Z,20.60
2018-06-13T12:10:15.466Z,20.20
2018-06-13T12:12:42.416Z,19.90
2018-06-13T12:15:09.280Z,19.50
2018-06-13T12:17:36.213Z,19.50
2018-06-13T12:20:03.165Z,19.30
2018-06-13T12:22:30.172Z,19.20
2018-06-13T12:24:57.886Z,19.40
2018-06-13T12:27:24.838Z,19.30
2018-06-13T12:29:51.685Z,19.50
2018-06-13T12:32:18.749Z,19.50
2018-06-13T12:34:45.692Z,19.60
2018-06-13T12:37:12.642Z,19.50
2018-06-13T12:39:39.394Z,19.80
2018-06-13T12:42:06.337Z,20.40
2018-06-13T12:44:33.288Z,20.40
2018-06-13T12:47:00.269Z,20.60
2018-06-13T12:49:27.191Z,20.60
2018-06-13T12:51:54.144Z,20.20
2018-06-13T12:54:20.901Z,20.40
2018-06-13T12:56:47.838Z,20.90
2018-06-13T12:59:14.794Z,20.50
2018-06-13T13:01:41.638Z,20.30
2018-06-13T13:04:08.437Z,20.30
2018-06-13T13:06:36.156Z,19.50
2018-06-13T13:09:03.209Z,19.50
2018-06-13T13:11:30.056Z,19.60
2018-06-13T13:13:56.906Z,19.80
2018-06-13T13:16:23.857Z,19.90
2018-06-13T13:18:50.808Z,20.00
2018-06-13T13:21:17.759Z,19.90
2018-06-13T13:23:44.713Z,20.30
2018-06-13T13:26:11.659Z,19.90
2018-06-13T13:28:38.611Z,20.00
2018-06-13T13:31:05.563Z,20.00
2018-06-13T13:33:32.410Z,20.40
2018-06-13T13:35:59.261Z,20.40
2018-06-13T13:38:26.211Z,20.00
2018-06-13T13:40:53.058Z,19.40
2018-06-13T13:43:20.827Z,19.20
2018-06-13T13:45:47.754Z,19.20
2018-06-13T13:48:14.628Z,19.10
2018-06-13T13:50:41.477Z,19.40
2018-06-13T13:53:08.428Z,19.60
2018-06-13T13:55:35.384Z,19.70
2018-06-13T13:58:02.226Z,20.00
2018-06-13T14:00:29.182Z,20.00
2018-06-13T14:02:56.232Z,19.50
2018-06-13T14:05:23.125Z,19.40
2018-06-13T14:07:50.030Z,19.30
2018-06-13T14:10:16.982Z,19.40
2018-06-13T14:12:44.549Z,19.70
2018-06-13T14:15:11.395Z,19.60
2018-06-13T14:17:38.244Z,19.90
2018-06-13T14:20:05.092Z,19.40
2018-06-13T14:22:32.096Z,19.30
2018-06-13T14:25:00.326Z,19.10
2018-06-13T14:27:27.278Z,19.10
2018-06-13T14:29:54.040Z,19.30
2018-06-13T14:32:20.870Z,19.20
2018-06-13T14:34:47.822Z,19.20
2018-06-13T14:37:14.671Z,19.00
2018-06-13T14:39:41.623Z,19.20
2018-06-13T14:42:08.471Z,19.40
2018-06-13T14:44:35.523Z,19.20
2018-06-13T14:47:02.475Z,18.90
2018-06-13T14:49:29.544Z,18.60
2018-06-13T14:51:56.375Z,18.40
2018-06-13T14:54:23.224Z,18.60
2018-06-13T14:56:50.210Z,18.40
2018-06-13T14:59:17.129Z,18.70
2018-06-13T15:01:44.078Z,18.80
2018-06-13T15:04:10.928Z,18.90
2018-06-13T15:06:37.879Z,18.70
2018-06-13T15:09:04.931Z,18.60
2018-06-13T15:11:31.779Z,18.80
2018-06-13T15:13:58.628Z,18.60
2018-06-13T15:16:25.481Z,18.40
2018-06-13T15:18:52.337Z,18.50
2018-06-13T15:21:19.275Z,18.60
2018-06-13T15:23:46.226Z,18.50
2018-06-13T15:26:13.076Z,18.30
2018-06-13T15:28:39.926Z,18.30
2018-06-13T15:31:06.784Z,18.20
2018-06-13T15:33:33.824Z,18.10
2018-06-13T15:36:00.677Z,17.90
2018-06-13T15:38:27.626Z,17.80
2018-06-13T15:40:54.581Z,17.80
2018-06-13T15:43:21.426Z,17.70
2018-06-13T15:45:49.091Z,17.70
2018-06-13T15:48:15.947Z,17.60
2018-06-13T15:50:42.793Z,17.60
2018-06-13T15:53:09.745Z,17.40
2018-06-13T15:55:36.700Z,17.40
2018-06-13T15:58:03.542Z,17.20
2018-06-13T16:00:30.388Z,17.00
2018-06-13T16:02:57.350Z,17.00
2018-06-13T16:05:24.290Z,17.00
2018-06-13T16:07:51.240Z,16.80
2018-06-13T16:10:18.601Z,16.90
2018-06-13T16:12:45.554Z,16.80
2018-06-13T16:15:12.402Z,16.70
2018-06-13T16:17:39.249Z,16.60
2018-06-13T16:20:06.305Z,16.50
2018-06-13T16:22:33.153Z,16.30
2018-06-13T16:25:00.104Z,16.10
2018-06-13T16:27:26.954Z,16.00
2018-06-13T16:29:53.801Z,16.00
2018-06-13T16:32:20.648Z,16.00
2018-06-13T16:34:47.601Z,16.00
2018-06-13T16:37:14.552Z,15.90
2018-06-13T16:39:41.503Z,15.90
2018-06-13T16:42:08.251Z,15.70
2018-06-13T16:44:36.027Z,15.90
2018-06-13T16:47:03.073Z,15.90
2018-06-13T16:49:29.939Z,15.70
2018-06-13T16:51:56.872Z,15.70
2018-06-13T16:54:23.925Z,15.60
2018-06-13T16:56:50.983Z,15.60
2018-06-13T16:59:17.928Z,15.60
2018-06-13T17:01:45.518Z,15.50
2018-06-13T17:04:12.449Z,15.40
2018-06-13T17:06:39.396Z,15.40
2018-06-13T17:09:06.248Z,15.20
2018-06-13T17:11:33.092Z,15.00
2018-06-13T17:13:59.942Z,15.10
2018-06-13T17:16:26.915Z,15.00
2018-06-13T17:18:53.841Z,15.10
2018-06-13T17:21:20.691Z,15.00
2018-06-13T17:23:47.642Z,14.90
2018-06-13T17:26:14.495Z,14.90
2018-06-13T17:28:41.443Z,14.60
2018-06-13T17:31:08.807Z,14.60
2018-06-13T17:33:35.617Z,14.50
2018-06-13T17:36:02.444Z,14.40
2018-06-13T17:38:29.211Z,14.30
2018-06-13T17:40:56.813Z,14.30
2018-06-13T17:43:23.659Z,14.20
2018-06-13T17:45:50.612Z,14.20
2018-06-13T17:48:17.564Z,14.10
2018-06-13T17:50:44.458Z,14.00
2018-06-13T17:53:11.267Z,14.00
2018-06-13T17:55:38.009Z,14.00
2018-06-13T17:58:05.059Z,14.00
2018-06-13T18:00:32.265Z,14.10
2018-06-13T18:02:59.062Z,14.10
2018-06-13T18:05:25.910Z,14.10
2018-06-13T18:07:52.702Z,14.00
2018-06-13T18:10:19.608Z,14.00
2018-06-13T18:12:46.558Z,14.00
2018-06-13T18:15:13.255Z,14.00
2018-06-13T18:17:41.483Z,14.00
2018-06-13T18:20:08.442Z,13.90
2018-06-13T18:22:36.102Z,13.90
2018-06-13T18:25:03.055Z,13.90
2018-06-13T18:27:30.117Z,13.90
2018-06-13T18:29:56.960Z,14.00
2018-06-13T18:32:23.905Z,14.00
2018-06-13T18:34:50.756Z,14.00
2018-06-13T18:37:17.602Z,13.90
2018-06-13T18:39:44.600Z,13.90
2018-06-13T18:42:36.155Z,13.90
2018-06-13T18:45:07.009Z,13.90
2018-06-13T18:47:33.856Z,13.90
2018-06-13T18:50:01.524Z,13.90
2018-06-13T18:52:28.372Z,13.90
2018-06-13T18:54:56.249Z,13.80
2018-06-13T18:57:23.069Z,13.80
2018-06-13T18:59:49.839Z,13.80
2018-06-13T19:02:17.610Z,13.80
2018-06-13T19:04:45.588Z,13.70
2018-06-13T19:07:13.147Z,13.70
2018-06-13T19:09:41.223Z,13.70
2018-06-13T19:12:09.972Z,13.70
2018-06-13T19:14:38.196Z,13.80
2018-06-13T19:17:06.321Z,13.80
2018-06-13T19:19:41.118Z,13.80
2018-06-13T19:22:09.587Z,13.80
2018-06-13T19:24:36.852Z,13.80
2018-06-13T19:27:03.926Z,13.80
2018-06-13T19:29:30.958Z,13.70
2018-06-13T19:32:00.283Z,13.60
2018-06-13T19:34:27.274Z,13.60
2018-06-13T19:36:54.980Z,13.60
2018-06-13T19:39:21.958Z,13.60
2018-06-13T19:41:48.757Z,13.60
2018-06-13T19:44:15.501Z,13.60
2018-06-13T19:46:42.682Z,13.60
2018-06-13T19:49:09.530Z,13.60
2018-06-13T19:51:36.581Z,13.60
2018-06-13T19:54:20.419Z,13.60
2018-06-13T19:56:47.369Z,13.60
2018-06-13T19:59:14.120Z,13.60
2018-06-13T20:01:40.967Z,13.60
2018-06-13T20:04:35.855Z,13.60
2018-06-13T20:07:02.803Z,13.60
2018-06-13T20:09:30.368Z,13.60
2018-06-13T20:11:57.268Z,13.70
2018-06-13T20:14:30.618Z,13.50
2018-06-13T20:17:13.326Z,13.50
2018-06-13T20:19:40.276Z,13.50
2018-06-13T20:22:07.227Z,13.50
2018-06-13T20:24:34.074Z,13.50
2018-06-13T20:27:19.551Z,13.50
2018-06-13T20:29:53.048Z,13.40
2018-06-13T20:32:19.899Z,13.50
2018-06-13T20:34:46.950Z,13.50
2018-06-13T20:37:13.801Z,13.40
2018-06-13T20:39:43.808Z,13.40
2018-06-13T20:42:13.559Z,13.40
2018-06-13T20:44:40.690Z,13.40
2018-06-13T20:47:10.163Z,13.40
2018-06-13T20:49:39.789Z,13.40
2018-06-13T20:52:07.378Z,13.40
2018-06-13T20:54:34.331Z,13.40
2018-06-13T20:57:01.282Z,13.40
2018-06-13T20:59:28.127Z,13.40
2018-06-13T21:01:54.975Z,13.40
2018-06-13T21:04:21.932Z,13.30
2018-06-13T21:06:48.979Z,13.30
2018-06-13T21:09:17.364Z,13.30
2018-06-13T21:11:44.938Z,13.30
2018-06-13T21:14:13.133Z,13.30
2018-06-13T21:16:40.739Z,13.20
2018-06-13T21:19:08.473Z,13.20
2018-06-13T21:21:35.811Z,13.10
2018-06-13T21:26:39.842Z,13.30
2018-06-13T21:29:06.697Z,13.30
2018-06-13T21:31:34.356Z,13.30
2018-06-13T21:34:02.024Z,13.30
2018-06-13T21:36:28.867Z,13.20
2018-06-13T21:38:56.028Z,13.20
2018-06-13T21:41:22.906Z,13.20
2018-06-13T21:43:49.824Z,13.20
2018-06-13T21:46:16.779Z,13.20
2018-06-13T21:48:46.318Z,13.20
2018-06-13T21:51:15.855Z,13.10
2018-06-13T21:53:42.978Z,13.10
2018-06-13T21:56:10.823Z,13.10
2018-06-13T21:58:38.083Z,13.00
2018-06-13T22:01:05.036Z,13.00
2018-06-13T22:03:31.984Z,13.00
2018-06-13T22:05:59.344Z,12.90
2018-06-13T22:08:26.190Z,12.80
2018-06-13T22:10:53.141Z,12.80
2018-06-13T22:13:20.502Z,12.70
2018-06-13T22:15:47.453Z,12.70
2018-06-13T22:18:14.815Z,12.60
2018-06-13T22:20:41.765Z,12.60
2018-06-13T22:23:08.612Z,12.60
2018-06-13T22:25:35.666Z,12.50
2018-06-13T22:28:02.618Z,12.50
2018-06-13T22:30:29.470Z,12.40
2018-06-13T22:32:56.415Z,12.40
2018-06-13T22:35:23.266Z,12.30
2018-06-13T22:37:50.026Z,12.40
2018-06-13T22:40:16.859Z,12.30
2018-06-13T22:42:43.813Z,12.20
2018-06-13T22:45:10.764Z,12.10
2018-06-13T22:47:37.816Z,12.00
2018-06-13T22:50:04.972Z,11.90
2018-06-13T22:52:32.740Z,11.80
2018-06-13T22:54:59.797Z,11.70
2018-06-13T22:57:26.589Z,11.60
2018-06-13T22:59:54.210Z,11.30
2018-06-13T23:02:21.056Z,11.30
2018-06-13T23:04:47.905Z,11.20
2018-06-13T23:07:14.856Z,11.10
2018-06-13T23:09:41.707Z,11.00
2018-06-13T23:12:08.662Z,11.00
2018-06-13T23:14:35.508Z,10.90
2018-06-13T23:17:02.356Z,10.90
2018-06-13T23:19:29.304Z,10.80
2018-06-13T23:21:56.155Z,10.80
2018-06-13T23:24:23.002Z,10.90
2018-06-13T23:26:49.964Z,10.90
2018-06-13T23:29:17.519Z,10.90
2018-06-13T23:31:44.468Z,10.80
2018-06-13T23:34:11.521Z,10.90
2018-06-13T23:36:38.988Z,10.90
2018-06-13T23:39:06.378Z,11.00
2018-06-13T23:41:33.294Z,11.10
2018-06-13T23:44:00.042Z,11.10
2018-06-13T23:46:26.889Z,11.10
2018-06-13T23:48:53.843Z,11.30
2018-06-13T23:51:21.100Z,11.40
2018-06-13T23:53:47.952Z,11.40
2018-06-13T23:56:15.620Z,11.50
2018-06-13T23:58:42.563Z,11.50
